Time;durP1;ratioP1;P1;durP2;ratioP2;P2;SDS_P1;SDS_P2;PMS_P1;PMS_P2;Temp;Humidity;BMP_temperature;BMP_pressure;BME280_temperature;BME280_humidity;BME280_pressure;Samples;Min_cycle;Max_cycle;Signal;HPM_P1;HPM_P2
2019/07/06 00:00:45;;;;;;;3.9;2.1;;;;;;;31.74;26.3584;1000.524;;;;
2019/07/06 00:03:09;;;;;;;4.2;2.2;;;;;;;31.74;26.38281;1000.509;;;;
2019/07/06 00:05:34;;;;;;;3.5;2.1;;;;;;;31.74;26.48145;1000.498;;;;
2019/07/06 00:08:54;;;;;;;4;2.2;;;;;;;31.73;26.48047;1000.466;;;;
2019/07/06 00:11:20;;;;;;;3.5;2.4;;;;;;;31.73;26.44434;1000.451;;;;
2019/07/06 00:13:45;;;;;;;3.2;2;;;;;;;31.72;26.43164;1000.425;;;;
2019/07/06 00:17:03;;;;;;;6.3;2;;;;;;;31.72;26.46777;1000.452;;;;
2019/07/06 00:19:29;;;;;;;5;1.8;;;;;;;31.72;26.43164;1000.447;;;;
2019/07/06 00:20:02;;;;;;;3.9;2.1;;;;;;;31.71;26.46777;1000.396;;;;
2019/07/06 00:22:42;;;;;;;3.3;2;;;;;;;31.71;26.46777;1000.421;;;;
2019/07/06 00:25:47;;;;;;;3.1;2;;;;;;;31.7;26.56543;1000.42;;;;
2019/07/06 00:28:14;;;;;;;4.1;2;;;;;;;31.7;26.55273;1000.426;;;;
2019/07/06 00:30:37;;;;;;;3.4;2.1;;;;;;;31.7;26.5166;1000.383;;;;
2019/07/06 00:33:02;;;;;;;5.7;2.3;;;;;;;31.69;26.56543;1000.377;;;;
2019/07/06 00:35:27;;;;;;;4;2.1;;;;;;;31.7;26.57813;1000.384;;;;
2019/07/06 00:37:52;;;;;;;2.9;2;;;;;;;31.69;26.65039;1000.359;;;;
2019/07/06 00:40:17;;;;;;;3.8;1.9;;;;;;;31.69;26.52734;1000.316;;;;
2019/07/06 00:41:08;;;;;;;4;2.3;;;;;;;31.69;26.57813;1000.318;;;;
2019/07/06 00:43:34;;;;;;;4.5;2.1;;;;;;;31.7;26.60254;1000.275;;;;
2019/07/06 00:46:00;;;;;;;3.9;2.2;;;;;;;31.68;26.62598;1000.261;;;;
2019/07/06 00:48:24;;;;;;;4.3;2.5;;;;;;;31.68;26.55176;1000.267;;;;
2019/07/06 00:50:49;;;;;;;5.8;2.3;;;;;;;31.68;26.65039;1000.212;;;;
2019/07/06 00:53:15;;;;;;;4;2.2;;;;;;;31.68;26.60059;1000.202;;;;
2019/07/06 00:56:34;;;;;;;4.1;2.6;;;;;;;31.66;26.77246;1000.131;;;;
2019/07/06 00:59:51;;;;;;;3.8;2.2;;;;;;;31.66;26.70996;1000.086;;;;
2019/07/06 01:03:19;;;;;;;3.5;2.4;;;;;;;31.66;26.80859;1000.128;;;;
2019/07/06 01:05:36;;;;;;;4.7;2.4;;;;;;;31.66;26.80957;1000.134;;;;
2019/07/06 01:08:02;;;;;;;3.9;2.3;;;;;;;31.64;26.89453;1000.096;;;;
2019/07/06 01:11:21;;;;;;;5.9;2.6;;;;;;;31.65;26.88184;1000.086;;;;
2019/07/06 01:13:47;;;;;;;6.3;2.4;;;;;;;31.64;26.96777;1000.013;;;;
2019/07/06 01:17:05;;;;;;;4.3;2.4;;;;;;;31.65;26.90625;999.9377;;;;
2019/07/06 01:19:30;;;;;;;4.3;2.5;;;;;;;31.65;26.89453;999.9044;;;;
2019/07/06 01:21:56;;;;;;;3.4;2.4;;;;;;;31.64;26.85645;999.8702;;;;
2019/07/06 01:22:34;;;;;;;4.3;2.3;;;;;;;31.64;26.88184;999.8848;;;;
2019/07/06 01:24:59;;;;;;;3.9;2.7;;;;;;;31.65;26.93066;999.8961;;;;
2019/07/06 01:27:24;;;;;;;4.2;2.5;;;;;;;31.64;27.04102;999.8477;;;;
2019/07/06 01:29:50;;;;;;;5.2;2.6;;;;;;;31.63;27.02832;999.9207;;;;
2019/07/06 01:33:08;;;;;;;5.2;2.8;;;;;;;31.62;27.04004;999.9077;;;;
2019/07/06 01:35:35;;;;;;;4.9;2.8;;;;;;;31.63;27.07715;999.981;;;;
2019/07/06 01:38:00;;;;;;;4.7;2.8;;;;;;;31.63;27.05273;999.9953;;;;
2019/07/06 01:41:19;;;;;;;6.7;3;;;;;;;31.63;27.10254;999.991;;;;
2019/07/06 01:43:44;;;;;;;5.9;2.7;;;;;;;31.62;27.1748;999.97;;;;
2019/07/06 01:46:10;;;;;;;4.6;2.6;;;;;;;31.61;27.125;999.9467;;;;
2019/07/06 01:49:29;;;;;;;4.7;2.8;;;;;;;31.59;27.16113;999.964;;;;
2019/07/06 01:51:53;;;;;;;4.8;2.7;;;;;;;31.59;27.23438;999.9205;;;;
2019/07/06 01:54:19;;;;;;;7.4;2.8;;;;;;;31.59;27.18652;999.9656;;;;
2019/07/06 01:56:44;;;;;;;4.5;3;;;;;;;31.58;27.27148;999.9467;;;;
2019/07/06 01:59:10;;;;;;;5.1;2.8;;;;;;;31.58;27.2959;999.9612;;;;
2019/07/06 02:01:35;;;;;;;5.9;2.7;;;;;;;31.58;27.2959;999.9589;;;;
2019/07/06 02:03:59;;;;;;;5.5;2.9;;;;;;;31.57;27.33203;999.935;;;;
2019/07/06 02:06:26;;;;;;;4.6;2.6;;;;;;;31.57;27.31934;999.9446;;;;
2019/07/06 02:08:51;;;;;;;4.3;2.6;;;;;;;31.56;27.34375;999.9891;;;;
2019/07/06 02:12:10;;;;;;;4.9;2.9;;;;;;;31.56;27.41699;999.911;;;;
2019/07/06 02:14:35;;;;;;;5.2;3;;;;;;;31.56;27.39258;999.9067;;;;
2019/07/06 02:17:02;;;;;;;4;2.5;;;;;;;31.56;27.44238;999.8862;;;;
2019/07/06 02:20:21;;;;;;;4.3;2.7;;;;;;;31.57;27.40527;999.8577;;;;
2019/07/06 02:22:47;;;;;;;4.4;2.7;;;;;;;31.55;27.44141;999.8259;;;;
2019/07/06 02:25:13;;;;;;;5.7;2.7;;;;;;;31.56;27.4541;999.8844;;;;
2019/07/06 02:27:37;;;;;;;6.4;2.7;;;;;;;31.55;27.44141;999.8691;;;;
2019/07/06 02:30:03;;;;;;;4.4;2.7;;;;;;;31.55;27.4541;999.8399;;;;
2019/07/06 02:33:21;;;;;;;6.1;2.8;;;;;;;31.53;27.46484;999.8519;;;;
2019/07/06 02:35:46;;;;;;;4.7;2.8;;;;;;;31.52;27.50098;999.8411;;;;
2019/07/06 02:35:59;;;;;;;3.7;2.5;;;;;;;31.51;27.48828;999.8447;;;;
2019/07/06 02:38:25;;;;;;;4.8;2.6;;;;;;;31.52;27.48828;999.8322;;;;
2019/07/06 02:40:49;;;;;;;4.7;2.5;;;;;;;31.51;27.5;999.8026;;;;
2019/07/06 02:44:09;;;;;;;5.7;2.4;;;;;;;31.52;27.50098;999.8201;;;;
2019/07/06 02:46:33;;;;;;;3.1;2.2;;;;;;;31.51;27.52441;999.7753;;;;
2019/07/06 02:49:52;;;;;;;4.5;2.5;;;;;;;31.51;27.53711;999.7654;;;;
2019/07/06 02:52:19;;;;;;;5;2.6;;;;;;;31.5;27.57422;999.8337;;;;
2019/07/06 02:54:45;;;;;;;5.6;2.6;;;;;;;31.51;27.5498;999.8284;;;;
2019/07/06 02:57:11;;;;;;;4.3;2.5;;;;;;;31.51;27.53809;999.8265;;;;
2019/07/06 02:59:37;;;;;;;4.6;2.4;;;;;;;31.5;27.56152;999.8586;;;;
2019/07/06 03:02:57;;;;;;;4.4;2.5;;;;;;;31.48;27.47363;999.8226;;;;
2019/07/06 03:05:23;;;;;;;4.4;2.5;;;;;;;31.47;27.58398;999.7759;;;;
2019/07/06 03:07:49;;;;;;;3.2;2.2;;;;;;;31.47;27.62109;999.6995;;;;
2019/07/06 03:10:13;;;;;;;5.4;2.4;;;;;;;31.48;27.60938;999.7068;;;;
2019/07/06 03:12:39;;;;;;;6;2.3;;;;;;;31.47;27.66992;999.6889;;;;
2019/07/06 03:15:05;;;;;;;3.8;2.5;;;;;;;31.46;27.53418;999.6537;;;;
2019/07/06 03:18:23;;;;;;;3.6;2.2;;;;;;;31.48;27.68262;999.5711;;;;
2019/07/06 03:20:51;;;;;;;4.8;2.2;;;;;;;31.47;27.69434;999.5269;;;;
2019/07/06 03:21:31;;;;;;;3.9;2.2;;;;;;;31.47;27.69434;999.4835;;;;
2019/07/06 03:23:58;;;;;;;4;2.3;;;;;;;31.48;27.60938;999.5156;;;;
2019/07/06 03:24:06;;;;;;;3.5;2.2;;;;;;;31.47;27.6084;999.4483;;;;
2019/07/06 03:27:26;;;;;;;4.4;2.3;;;;;;;31.47;27.70703;999.4788;;;;
2019/07/06 03:30:46;;;;;;;3.8;2.5;;;;;;;31.45;27.73047;999.423;;;;
2019/07/06 03:33:09;;;;;;;3.6;2.3;;;;;;;31.45;27.73047;999.4469;;;;
2019/07/06 03:35:35;;;;;;;3.2;2;;;;;;;31.44;27.74219;999.3814;;;;
2019/07/06 03:38:02;;;;;;;4.2;2.3;;;;;;;31.44;27.69238;999.3764;;;;
2019/07/06 03:38:31;;;;;;;7.1;2.4;;;;;;;31.44;27.72949;999.3605;;;;
2019/07/06 03:40:57;;;;;;;4;2.3;;;;;;;31.43;27.74121;999.3495;;;;
2019/07/06 03:43:22;;;;;;;6.1;2.3;;;;;;;31.43;27.74121;999.3943;;;;
2019/07/06 03:45:51;;;;;;;4.7;2.6;;;;;;;31.43;27.77832;999.4059;;;;
2019/07/06 03:49:06;;;;;;;4.2;2.3;;;;;;;31.44;27.7793;999.4103;;;;
2019/07/06 03:51:32;;;;;;;7.3;2.6;;;;;;;31.44;27.75391;999.4328;;;;
2019/07/06 03:53:58;;;;;;;6.7;2.5;;;;;;;31.44;27.80273;999.3963;;;;
2019/07/06 03:56:23;;;;;;;7.1;2.3;;;;;;;31.43;27.80176;999.3912;;;;
2019/07/06 03:58:50;;;;;;;7.1;2.4;;;;;;;31.43;27.74121;999.4398;;;;
2019/07/06 04:02:08;;;;;;;4.2;2.2;;;;;;;31.43;27.7041;999.4341;;;;
2019/07/06 04:04:33;;;;;;;5.2;2.3;;;;;;;31.43;27.72852;999.4408;;;;
2019/07/06 04:06:59;;;;;;;4.6;2.2;;;;;;;31.44;27.80273;999.4113;;;;
2019/07/06 04:10:18;;;;;;;9.4;2.5;;;;;;;31.43;27.77832;999.4673;;;;
2019/07/06 04:12:43;;;;;;;6.1;2.4;;;;;;;31.43;27.77832;999.4963;;;;
2019/07/06 04:16:02;;;;;;;4.4;2.2;;;;;;;31.44;27.7168;999.4255;;;;
2019/07/06 04:18:27;;;;;;;9;2.4;;;;;;;31.43;27.79004;999.3797;;;;
2019/07/06 04:20:53;;;;;;;6.1;2.3;;;;;;;31.43;27.71582;999.3962;;;;
2019/07/06 04:23:17;;;;;;;4;2.2;;;;;;;31.43;27.7168;999.3546;;;;
2019/07/06 04:25:43;;;;;;;5.4;2.4;;;;;;;31.42;27.72852;999.3917;;;;
2019/07/06 04:28:09;;;;;;;8;2.2;;;;;;;31.41;27.80176;999.325;;;;
2019/07/06 04:30:34;;;;;;;5.5;2.4;;;;;;;31.43;27.80273;999.3173;;;;
2019/07/06 04:33:00;;;;;;;6.1;2.1;;;;;;;31.4;27.84961;999.2595;;;;
2019/07/06 04:35:26;;;;;;;4.9;2.4;;;;;;;31.4;27.75195;999.2375;;;;
2019/07/06 04:37:50;;;;;;;4.3;2.1;;;;;;;31.4;27.8125;999.197;;;;
2019/07/06 04:41:09;;;;;;;4;2.1;;;;;;;31.41;27.80176;999.1825;;;;
2019/07/06 04:43:36;;;;;;;4.1;1.9;;;;;;;31.41;27.82617;999.1583;;;;
2019/07/06 04:46:01;;;;;;;4.7;2.1;;;;;;;31.43;27.77734;999.1656;;;;
2019/07/06 04:46:48;;;;;;;5.2;2.2;;;;;;;31.43;27.80273;999.1909;;;;
2019/07/06 04:49:12;;;;;;;5.9;2.3;;;;;;;31.44;27.75488;999.1863;;;;
2019/07/06 04:52:31;;;;;;;5.5;2;;;;;;;31.47;27.79297;999.2062;;;;
2019/07/06 04:54:56;;;;;;;4.9;2.1;;;;;;;31.48;27.76855;999.2147;;;;
2019/07/06 04:57:22;;;;;;;4.4;2.1;;;;;;;31.49;27.79492;999.2352;;;;
2019/07/06 04:59:46;;;;;;;6;2.2;;;;;;;31.51;27.80762;999.2492;;;;
2019/07/06 05:02:12;;;;;;;7.6;2.3;;;;;;;31.53;27.82129;999.2314;;;;
2019/07/06 05:02:50;;;;;;;3.8;2;;;;;;;31.53;27.83398;999.2181;;;;
2019/07/06 05:05:15;;;;;;;6;2.2;;;;;;;31.54;27.87109;999.1866;;;;
2019/07/06 05:08:35;;;;;;;5.3;2.3;;;;;;;31.56;27.78613;999.1824;;;;
2019/07/06 05:11:01;;;;;;;4.2;2.1;;;;;;;31.57;27.75;999.1887;;;;
2019/07/06 05:13:25;;;;;;;3.6;2.1;;;;;;;31.59;27.69043;999.2021;;;;
2019/07/06 05:16:44;;;;;;;3.8;1.8;;;;;;;31.63;27.65527;999.2025;;;;
2019/07/06 05:19:09;;;;;;;4.5;2.2;;;;;;;31.66;27.62012;999.2029;;;;
2019/07/06 05:21:35;;;;;;;5;1.8;;;;;;;31.68;27.59668;999.2252;;;;
2019/07/06 05:22:17;;;;;;;4;2;;;;;;;31.68;27.59668;999.2369;;;;
2019/07/06 05:24:42;;;;;;;3;2;;;;;;;31.69;27.65918;999.2787;;;;
2019/07/06 05:27:08;;;;;;;4;2;;;;;;;31.7;27.58594;999.223;;;;
2019/07/06 05:29:33;;;;;;;4.4;1.8;;;;;;;31.73;27.53906;999.2344;;;;
2019/07/06 05:32:52;;;;;;;3.3;2;;;;;;;31.76;27.51563;999.2467;;;;
2019/07/06 05:35:18;;;;;;;5.2;2.4;;;;;;;31.8;27.53027;999.2693;;;;
2019/07/06 05:38:36;;;;;;;4.4;2.1;;;;;;;31.81;27.49414;999.2977;;;;
2019/07/06 05:41:03;;;;;;;5.2;2.3;;;;;;;31.83;27.4707;999.3549;;;;
2019/07/06 05:43:28;;;;;;;7.5;2.4;;;;;;;31.85;27.33691;999.3821;;;;
2019/07/06 05:45:53;;;;;;;6.1;2;;;;;;;31.86;27.19043;999.418;;;;
2019/07/06 05:48:18;;;;;;;2.9;2;;;;;;;31.89;26.99512;999.4194;;;;
2019/07/06 05:50:44;;;;;;;4.6;2;;;;;;;31.9;26.81055;999.3825;;;;
2019/07/06 05:53:25;;;;;;;4.2;2;;;;;;;31.91;26.60254;999.4333;;;;
2019/07/06 05:55:50;;;;;;;3.2;1.9;;;;;;;31.92;26.46777;999.45;;;;
2019/07/06 05:58:17;;;;;;;5.3;1.7;;;;;;;31.93;26.32031;999.4142;;;;
2019/07/06 06:01:35;;;;;;;7;1.8;;;;;;;31.97;26.1875;999.4783;;;;
2019/07/06 06:04:01;;;;;;;4.6;1.8;;;;;;;31.97;26.12598;999.4213;;;;
2019/07/06 06:06:25;;;;;;;6.1;2;;;;;;;31.98;26.08984;999.3831;;;;
2019/07/06 06:08:52;;;;;;;3.1;1.7;;;;;;;31.99;26.09082;999.3217;;;;
2019/07/06 06:11:17;;;;;;;3.5;1.7;;;;;;;32;26.09082;999.3038;;;;
2019/07/06 06:13:43;;;;;;;3.9;1.8;;;;;;;32.02;26.0791;999.2321;;;;
2019/07/06 06:16:08;;;;;;;3.3;1.8;;;;;;;32.04;26.01953;999.2704;;;;
2019/07/06 06:19:26;;;;;;;5.4;1.6;;;;;;;32.05;25.95898;999.3005;;;;
2019/07/06 06:21:51;;;;;;;5.7;1.8;;;;;;;32.06;25.86035;999.2626;;;;
2019/07/06 06:24:17;;;;;;;5.2;1.9;;;;;;;32.08;25.76367;999.2467;;;;
2019/07/06 06:27:36;;;;;;;4.6;1.7;;;;;;;32.09;25.72656;999.2058;;;;
2019/07/06 06:30:55;;;;;;;5.9;1.9;;;;;;;32.1;25.6416;999.1929;;;;
2019/07/06 06:33:20;;;;;;;5.7;1.8;;;;;;;32.11;25.64258;999.2278;;;;
2019/07/06 06:34:05;;;;;;;5.3;1.7;;;;;;;32.11;25.6543;999.2444;;;;
2019/07/06 06:36:31;;;;;;;2.5;1.6;;;;;;;32.1;25.66602;999.2733;;;;
2019/07/06 06:38:56;;;;;;;4.2;1.6;;;;;;;32.11;25.67871;999.3115;;;;
2019/07/06 06:41:22;;;;;;;2.9;1.8;;;;;;;32.09;25.72656;999.3178;;;;
2019/07/06 06:43:47;;;;;;;4.5;1.7;;;;;;;32.08;25.76367;999.2513;;;;
2019/07/06 06:46:12;;;;;;;4.5;1.6;;;;;;;32.07;25.7998;999.245;;;;
2019/07/06 06:49:31;;;;;;;7.8;1.8;;;;;;;32.06;25.86035;999.1586;;;;
2019/07/06 06:51:56;;;;;;;3.9;1.8;;;;;;;32.06;25.88477;999.123;;;;
2019/07/06 06:52:39;;;;;;;5.4;1.8;;;;;;;32.06;25.89746;999.1387;;;;
2019/07/06 06:55:06;;;;;;;3.9;1.9;;;;;;;32.06;25.92188;999.1201;;;;
2019/07/06 06:57:30;;;;;;;4.6;1.8;;;;;;;32.06;25.97168;999.0995;;;;
2019/07/06 06:59:56;;;;;;;5.5;2;;;;;;;32.07;26.00879;999.0825;;;;
2019/07/06 07:00:16;;;;;;;9.1;2.1;;;;;;;32.06;26.04492;999.0962;;;;
2019/07/06 07:02:43;;;;;;;4.9;1.8;;;;;;;32.07;26.10742;999.1012;;;;
2019/07/06 07:05:06;;;;;;;4.1;1.7;;;;;;;32.08;26.10742;999.0659;;;;
2019/07/06 07:07:32;;;;;;;4.7;1.7;;;;;;;32.07;26.15625;999.0101;;;;
2019/07/06 07:10:51;;;;;;;4.6;1.9;;;;;;;32.09;26.25586;999.0264;;;;
2019/07/06 07:13:16;;;;;;;4.4;1.8;;;;;;;32.1;26.25684;999.0151;;;;
2019/07/06 07:15:42;;;;;;;3.7;1.9;;;;;;;32.11;26.26953;999.0128;;;;
2019/07/06 07:18:08;;;;;;;4.9;2.1;;;;;;;32.1;26.31836;999.0237;;;;
2019/07/06 07:20:33;;;;;;;6.2;2;;;;;;;32.1;26.31836;999.0158;;;;
2019/07/06 07:22:57;;;;;;;9.5;2;;;;;;;32.09;26.33008;999.0388;;;;
2019/07/06 07:25:23;;;;;;;4.9;1.9;;;;;;;32.09;26.31738;999.0453;;;;
2019/07/06 07:28:43;;;;;;;6.7;2;;;;;;;32.1;26.28125;999.0221;;;;
2019/07/06 07:31:08;;;;;;;6.8;1.9;;;;;;;32.09;26.28027;998.9756;;;;
2019/07/06 07:33:33;;;;;;;4.8;2.1;;;;;;;32.09;26.28027;998.9547;;;;
2019/07/06 07:35:58;;;;;;;4.5;1.9;;;;;;;32.1;26.21973;998.8839;;;;
2019/07/06 07:39:18;;;;;;;4.5;1.7;;;;;;;32.12;26.20801;998.8865;;;;
2019/07/06 07:41:46;;;;;;;4.3;1.8;;;;;;;32.14;26.18555;998.9275;;;;
2019/07/06 07:44:12;;;;;;;4;1.7;;;;;;;32.15;26.125;998.9623;;;;
2019/07/06 07:44:56;;;;;;;5.1;1.8;;;;;;;32.16;26.1123;998.9667;;;;
2019/07/06 07:47:22;;;;;;;3.2;1.7;;;;;;;32.18;26.08887;998.9573;;;;
2019/07/06 07:49:49;;;;;;;6.4;1.7;;;;;;;32.2;26.08984;998.984;;;;
2019/07/06 07:52:14;;;;;;;5.7;1.9;;;;;;;32.21;26.07813;998.991;;;;
2019/07/06 07:54:39;;;;;;;6.3;2;;;;;;;32.2;26.07813;999.0048;;;;
2019/07/06 07:57:05;;;;;;;5.7;2;;;;;;;32.22;26.0293;998.9656;;;;
2019/07/06 07:57:35;;;;;;;3.4;1.8;;;;;;;32.22;26.04199;998.9441;;;;
2019/07/06 08:00:01;;;;;;;4.5;2;;;;;;;32.23;26.00586;998.8792;;;;
2019/07/06 08:02:27;;;;;;;4.4;2;;;;;;;32.25;26.00684;998.8677;;;;
2019/07/06 08:04:50;;;;;;;4.1;1.9;;;;;;;32.26;26.04492;998.8742;;;;
2019/07/06 08:07:16;;;;;;;4.9;1.7;;;;;;;32.28;26.08203;998.8457;;;;
2019/07/06 08:09:41;;;;;;;6.8;2.1;;;;;;;32.29;26.1084;998.8796;;;;
2019/07/06 08:12:06;;;;;;;7.8;1.9;;;;;;;32.31;26.1084;998.8677;;;;
2019/07/06 08:14:32;;;;;;;7.2;2;;;;;;;32.32;26.09668;998.8636;;;;
2019/07/06 08:16:57;;;;;;;4.4;1.9;;;;;;;32.32;26.08398;998.8792;;;;
2019/07/06 08:19:22;;;;;;;4.7;2;;;;;;;32.33;26.08496;998.8713;;;;
2019/07/06 08:21:48;;;;;;;6.4;2;;;;;;;32.34;26.09766;998.8862;;;;
2019/07/06 08:24:12;;;;;;;3.6;1.9;;;;;;;32.35;26.09863;998.9249;;;;
2019/07/06 08:26:38;;;;;;;5;1.8;;;;;;;32.36;26.03809;998.984;;;;
2019/07/06 08:30:00;;;;;;;5.1;1.9;;;;;;;32.35;25.82715;998.9747;;;;
2019/07/06 08:32:22;;;;;;;5.2;1.9;;;;;;;32.35;25.74219;999.0285;;;;
2019/07/06 08:34:49;;;;;;;3.8;1.8;;;;;;;32.36;25.69336;999.0524;;;;
2019/07/06 08:37:13;;;;;;;4.1;1.9;;;;;;;32.37;25.48438;999.0232;;;;
2019/07/06 08:39:39;;;;;;;5.5;1.7;;;;;;;32.37;25.33691;998.9614;;;;
2019/07/06 08:42:57;;;;;;;6;1.6;;;;;;;32.41;25.38867;998.9108;;;;
2019/07/06 08:45:23;;;;;;;4.3;1.6;;;;;;;32.42;25.29004;998.9773;;;;
2019/07/06 08:47:50;;;;;;;3.3;1.5;;;;;;;32.4;25.25195;998.9444;;;;
2019/07/06 08:51:09;;;;;;;6.4;1.6;;;;;;;32.4;25.15332;998.9793;;;;
2019/07/06 08:54:28;;;;;;;4.7;1.8;;;;;;;32.44;25.02051;998.9727;;;;
2019/07/06 08:56:54;;;;;;;5.6;1.6;;;;;;;32.45;24.94629;998.9506;;;;
2019/07/06 08:59:20;;;;;;;5.8;1.5;;;;;;;32.45;24.94629;998.9773;;;;
2019/07/06 09:01:44;;;;;;;6.9;1.7;;;;;;;32.44;24.94629;998.9626;;;;
2019/07/06 09:04:10;;;;;;;4.4;1.5;;;;;;;32.45;24.86035;998.9636;;;;
2019/07/06 09:04:59;;;;;;;4.4;1.7;;;;;;;32.44;24.88477;998.952;;;;
2019/07/06 09:07:25;;;;;;;6.5;1.9;;;;;;;32.41;24.88379;998.9497;;;;
2019/07/06 09:09:49;;;;;;;3.4;1.8;;;;;;;32.4;24.90723;998.9733;;;;
2019/07/06 09:12:14;;;;;;;3.3;1.9;;;;;;;32.39;24.96875;998.9275;;;;
2019/07/06 09:14:40;;;;;;;7.9;1.8;;;;;;;32.41;24.96973;998.8583;;;;
2019/07/06 09:17:06;;;;;;;4.2;1.5;;;;;;;32.42;24.96973;998.9135;;;;
2019/07/06 09:19:31;;;;;;;5.4;1.6;;;;;;;32.42;24.95703;998.8969;;;;
2019/07/06 09:21:56;;;;;;;5.8;1.8;;;;;;;32.42;24.96973;998.9225;;;;
2019/07/06 09:22:39;;;;;;;4.5;1.6;;;;;;;32.41;24.98145;998.8692;;;;
2019/07/06 09:25:04;;;;;;;4.4;1.5;;;;;;;32.41;24.96973;998.8789;;;;
2019/07/06 09:27:31;;;;;;;6.1;1.7;;;;;;;32.42;25.00684;998.8869;;;;
2019/07/06 09:27:45;;;;;;;5.6;1.6;;;;;;;32.42;24.99414;998.8746;;;;
2019/07/06 09:30:09;;;;;;;5.5;1.6;;;;;;;32.4;24.90723;998.9001;;;;
2019/07/06 09:32:35;;;;;;;4;1.7;;;;;;;32.4;24.95703;998.8812;;;;
2019/07/06 09:35:01;;;;;;;5.6;1.8;;;;;;;32.4;24.87012;998.8463;;;;
2019/07/06 09:37:26;;;;;;;3.3;1.4;;;;;;;32.37;24.86914;998.8035;;;;
2019/07/06 09:39:51;;;;;;;5.4;1.6;;;;;;;32.36;24.89258;998.7958;;;;
2019/07/06 09:42:19;;;;;;;3.9;1.3;;;;;;;32.37;24.86914;998.8195;;;;
2019/07/06 09:44:42;;;;;;;4.3;1.4;;;;;;;32.38;24.77148;998.7961;;;;
2019/07/06 09:45:25;;;;;;;3.9;1.5;;;;;;;32.39;24.74609;998.8297;;;;
2019/07/06 09:47:50;;;;;;;4.1;1.6;;;;;;;32.4;24.80859;998.8108;;;;
2019/07/06 09:51:09;;;;;;;2.5;1.3;;;;;;;32.4;24.80859;998.8014;;;;
2019/07/06 09:53:35;;;;;;;5;1.5;;;;;;;32.4;24.85742;998.752;;;;
2019/07/06 09:56:01;;;;;;;2.7;1.2;;;;;;;32.38;24.61133;998.7662;;;;
2019/07/06 09:58:26;;;;;;;4.1;1.7;;;;;;;32.39;24.52441;998.7177;;;;
2019/07/06 10:00:51;;;;;;;3;1.5;;;;;;;32.38;24.40137;998.6739;;;;
2019/07/06 10:03:16;;;;;;;2.3;1.5;;;;;;;32.37;24.36426;998.6589;;;;
2019/07/06 10:05:42;;;;;;;4.7;1.7;;;;;;;32.4;24.42676;998.6406;;;;
2019/07/06 10:08:07;;;;;;;5.3;1.4;;;;;;;32.39;24.57422;998.6333;;;;
2019/07/06 10:10:32;;;;;;;2.7;1.4;;;;;;;32.35;23.55078;998.5861;;;;
2019/07/06 10:12:57;;;;;;;4.6;1.5;;;;;;;32.35;23.69824;998.5483;;;;
2019/07/06 10:15:22;;;;;;;3.4;1.4;;;;;;;32.35;23.74805;998.5629;;;;
2019/07/06 10:17:48;;;;;;;4;1.5;;;;;;;32.37;23.33008;998.5563;;;;
2019/07/06 10:21:07;;;;;;;4.5;1.4;;;;;;;32.36;23.40332;998.5316;;;;
2019/07/06 10:23:32;;;;;;;3.8;1.3;;;;;;;32.37;23.6377;998.4901;;;;
2019/07/06 10:25:57;;;;;;;5.6;1.3;;;;;;;32.35;23.3291;998.4293;;;;
2019/07/06 10:28:22;;;;;;;3.3;1.3;;;;;;;32.36;23.36621;998.4329;;;;
2019/07/06 10:30:48;;;;;;;2.4;1.5;;;;;;;32.36;23.36621;998.4044;;;;
2019/07/06 10:33:13;;;;;;;3.9;1.5;;;;;;;32.36;23.30469;998.3655;;;;
2019/07/06 10:35:40;;;;;;;2;1.2;;;;;;;32.39;23.51563;998.3222;;;;
2019/07/06 10:38:06;;;;;;;4.8;1.3;;;;;;;32.39;23.33105;998.2623;;;;
2019/07/06 10:40:30;;;;;;;3.5;1.3;;;;;;;32.39;23.29395;998.2191;;;;
2019/07/06 10:42:55;;;;;;;3.9;1.2;;;;;;;32.37;22.88672;998.281;;;;
2019/07/06 10:45:20;;;;;;;1.7;1.1;;;;;;;32.34;23.05762;998.2263;;;;
2019/07/06 10:46:00;;;;;;;3.6;1.3;;;;;;;32.35;22.99609;998.2468;;;;
2019/07/06 10:49:18;;;;;;;2.1;1.2;;;;;;;32.34;22.41699;998.1092;;;;
2019/07/06 10:51:44;;;;;;;2.5;1.1;;;;;;;32.34;22.03516;998.0148;;;;
2019/07/06 10:51:58;;;;;;;2.4;1;;;;;;;32.34;22.02344;998.0318;;;;
2019/07/06 10:54:23;;;;;;;2.1;1.1;;;;;;;32.35;22.03613;998.0089;;;;
2019/07/06 10:56:49;;;;;;;3.7;1.2;;;;;;;32.35;21.97461;997.9427;;;;
2019/07/06 10:59:14;;;;;;;2.4;1;;;;;;;32.34;22.07227;997.8839;;;;
2019/07/06 11:01:39;;;;;;;2.6;1;;;;;;;32.36;22.55371;997.8121;;;;
2019/07/06 11:04:05;;;;;;;2.6;1.1;;;;;;;32.37;22.62793;997.8384;;;;
2019/07/06 11:06:31;;;;;;;2.8;1.2;;;;;;;32.37;22.41895;997.7819;;;;
2019/07/06 11:07:08;;;;;;;2.1;1.1;;;;;;;32.38;22.44336;997.7728;;;;
2019/07/06 11:09:34;;;;;;;1.7;1;;;;;;;32.38;22.51758;997.8058;;;;
2019/07/06 11:11:59;;;;;;;2.3;0.9;;;;;;;32.37;21.49512;997.7619;;;;
2019/07/06 11:12:13;;;;;;;2;0.9;;;;;;;32.36;21.58105;997.7911;;;;
2019/07/06 11:14:38;;;;;;;5.4;1.1;;;;;;;32.35;21.74121;997.7386;;;;
2019/07/06 11:17:59;;;;;;;2.7;1;;;;;;;32.34;21.08789;997.6672;;;;
2019/07/06 11:20:24;;;;;;;1.9;0.9;;;;;;;32.35;21.62988;997.6337;;;;
2019/07/06 11:22:49;;;;;;;1.4;0.9;;;;;;;32.35;21.66699;997.6194;;;;
2019/07/06 11:25:15;;;;;;;3;1;;;;;;;32.36;21.37207;997.5416;;;;
2019/07/06 11:28:34;;;;;;;2.5;0.9;;;;;;;32.36;21.19922;997.4991;;;;
2019/07/06 11:31:53;;;;;;;4;1;;;;;;;32.36;21.01465;997.4359;;;;
2019/07/06 11:34:20;;;;;;;2.5;0.9;;;;;;;32.36;21.33496;997.5229;;;;
2019/07/06 11:36:46;;;;;;;4.5;0.9;;;;;;;32.38;21.54492;997.4511;;;;
2019/07/06 11:39:11;;;;;;;1;0.7;;;;;;;32.36;20.63281;997.4598;;;;
2019/07/06 11:41:36;;;;;;;6.2;0.9;;;;;;;32.36;20.39941;997.4016;;;;
2019/07/06 11:44:01;;;;;;;1.2;0.8;;;;;;;32.37;20.60938;997.403;;;;
2019/07/06 11:46:27;;;;;;;1.5;0.8;;;;;;;32.38;21.22559;997.3942;;;;
2019/07/06 11:49:45;;;;;;;1.8;0.7;;;;;;;32.38;20.46191;997.4246;;;;
2019/07/06 11:52:11;;;;;;;3.4;0.7;;;;;;;32.38;20.15332;997.368;;;;
2019/07/06 11:52:46;;;;;;;1.5;0.9;;;;;;;32.38;19.87012;997.3292;;;;
2019/07/06 11:55:12;;;;;;;1.4;0.9;;;;;;;32.39;20.16602;997.2453;;;;
2019/07/06 11:58:31;;;;;;;1.8;0.8;;;;;;;32.39;21.04102;997.116;;;;
2019/07/06 12:02:43;;;;;;;1.3;0.8;;;;;;;32.41;20.41406;997.1293;;;;
2019/07/06 12:05:09;;;;;;;3;0.7;;;;;;;32.4;20.52441;997.1021;;;;
2019/07/06 12:07:34;;;;;;;2;0.8;;;;;;;32.41;20.58594;997.1609;;;;
2019/07/06 12:10:54;;;;;;;1.1;0.6;;;;;;;32.42;20.53711;997.0694;;;;
2019/07/06 12:13:18;;;;;;;1.7;0.6;;;;;;;32.42;20.2793;996.9997;;;;
2019/07/06 12:17:31;;;;;;;0.9;0.7;;;;;;;32.42;20.58594;996.9741;;;;
2019/07/06 12:19:56;;;;;;;1.3;0.7;;;;;;;32.44;20.42773;996.9949;;;;
2019/07/06 12:22:23;;;;;;;1.7;0.6;;;;;;;32.43;20.66113;997.0049;;;;
2019/07/06 12:24:47;;;;;;;1.1;0.7;;;;;;;32.43;20.47656;996.96;;;;
2019/07/06 12:25:01;;;;;;;1.8;0.7;;;;;;;32.42;20.52539;996.967;;;;
2019/07/06 12:27:27;;;;;;;0.7;0.6;;;;;;;32.44;20.41504;996.9334;;;;
2019/07/06 12:30:48;;;;;;;3.8;0.7;;;;;;;32.45;20.3291;996.8273;;;;
2019/07/06 12:33:13;;;;;;;1.9;0.7;;;;;;;32.46;20.28027;996.82;;;;
2019/07/06 12:35:39;;;;;;;2.7;0.8;;;;;;;32.46;20.26855;996.8439;;;;
2019/07/06 12:38:04;;;;;;;1.7;0.8;;;;;;;32.48;20.29395;996.8103;;;;
2019/07/06 12:40:29;;;;;;;1.9;0.8;;;;;;;32.48;20.34277;996.6746;;;;
2019/07/06 12:42:54;;;;;;;0.9;0.5;;;;;;;32.5;20.33203;996.7783;;;;
2019/07/06 12:45:20;;;;;;;2.1;0.6;;;;;;;32.49;20.47949;996.7161;;;;
2019/07/06 12:47:46;;;;;;;1;0.6;;;;;;;32.51;20.38086;996.5961;;;;
2019/07/06 12:50:11;;;;;;;2.2;0.7;;;;;;;32.52;20.33203;996.5232;;;;
2019/07/06 12:52:36;;;;;;;2.5;0.8;;;;;;;32.52;20.44336;996.5298;;;;
2019/07/06 12:52:47;;;;;;;2.7;0.9;;;;;;;32.52;20.39355;996.5275;;;;
2019/07/06 12:55:18;;;;;;;1.6;0.7;;;;;;;32.52;20.46777;996.5183;;;;
2019/07/06 12:57:38;;;;;;;3;0.8;;;;;;;32.53;20.50488;996.5458;;;;
2019/07/06 13:00:05;;;;;;;3.1;0.8;;;;;;;32.53;20.61621;996.5531;;;;
2019/07/06 13:02:30;;;;;;;1.8;0.7;;;;;;;32.54;20.56738;996.6092;;;;
2019/07/06 13:04:56;;;;;;;1.8;0.6;;;;;;;32.54;20.51855;996.6205;;;;
2019/07/06 13:07:21;;;;;;;2;0.7;;;;;;;32.54;20.53027;996.5906;;;;
2019/07/06 13:09:46;;;;;;;1.2;0.7;;;;;;;32.55;20.61719;996.572;;;;
2019/07/06 13:12:12;;;;;;;1.8;0.7;;;;;;;32.54;20.51758;996.5634;;;;
2019/07/06 13:14:37;;;;;;;1.9;0.8;;;;;;;32.55;20.45703;996.5826;;;;
2019/07/06 13:17:03;;;;;;;3.5;0.8;;;;;;;32.55;20.66699;996.5869;;;;
2019/07/06 13:19:29;;;;;;;2;1;;;;;;;32.56;20.55566;996.6829;;;;
2019/07/06 13:21:55;;;;;;;2.2;0.7;;;;;;;32.58;20.74121;996.7111;;;;
2019/07/06 13:24:20;;;;;;;2;0.7;;;;;;;32.59;20.82813;996.7598;;;;
2019/07/06 13:27:39;;;;;;;3.9;0.8;;;;;;;32.61;20.86621;996.7006;;;;
2019/07/06 13:30:03;;;;;;;4.4;0.9;;;;;;;32.61;20.98926;996.662;;;;
2019/07/06 13:32:30;;;;;;;1.7;0.9;;;;;;;32.63;20.99023;996.647;;;;
2019/07/06 13:36:44;;;;;;;2.1;1;;;;;;;32.64;21.11328;996.637;;;;
2019/07/06 13:40:05;;;;;;;1.7;0.9;;;;;;;32.64;21.16309;996.6992;;;;
2019/07/06 13:42:30;;;;;;;1.7;0.8;;;;;;;32.62;21.24902;996.6324;;;;
2019/07/06 13:44:56;;;;;;;2.6;1;;;;;;;32.64;21.29883;996.613;;;;
2019/07/06 13:48:16;;;;;;;2.4;0.8;;;;;;;32.61;21.34668;996.5457;;;;
2019/07/06 13:50:40;;;;;;;4.5;0.9;;;;;;;32.63;21.38379;996.529;;;;
2019/07/06 13:53:07;;;;;;;1.9;0.7;;;;;;;32.63;21.44531;996.5206;;;;
2019/07/06 13:55:31;;;;;;;1.8;0.8;;;;;;;32.64;21.4834;996.4558;;;;
2019/07/06 13:57:56;;;;;;;2;0.9;;;;;;;32.66;21.57031;996.4217;;;;
2019/07/06 14:00:22;;;;;;;2;0.8;;;;;;;32.67;21.50977;996.3821;;;;
2019/07/06 14:02:46;;;;;;;3.7;1.1;;;;;;;32.67;21.50879;996.3067;;;;
2019/07/06 14:05:12;;;;;;;1.2;0.9;;;;;;;32.67;21.55957;996.2887;;;;
2019/07/06 14:07:37;;;;;;;1.3;0.8;;;;;;;32.68;21.57129;996.3056;;;;
2019/07/06 14:10:57;;;;;;;1.9;1.1;;;;;;;32.69;21.6582;996.3066;;;;
2019/07/06 14:13:21;;;;;;;2.2;1.1;;;;;;;32.68;21.69531;996.2477;;;;
2019/07/06 14:16:41;;;;;;;7.2;1;;;;;;;32.7;21.70801;996.1662;;;;
2019/07/06 14:19:09;;;;;;;2.2;1;;;;;;;32.7;21.70801;996.1735;;;;
2019/07/06 14:21:35;;;;;;;1.8;0.9;;;;;;;32.7;21.70801;996.1296;;;;
2019/07/06 14:24:01;;;;;;;4;1.2;;;;;;;32.7;21.70801;996.1575;;;;